sensor_id;sensor_type;location;lat;lon;timestamp;pressure;altitude;pressure_sealevel;temperature;humidity
60866;BME280;46701;51.558;-0.448;2022-08-19T00:00:54;100956.00;;;29.03;48.66
60866;BME280;46701;51.558;-0.448;2022-08-19T00:05:56;100956.00;;;29.03;48.74
60866;BME280;46701;51.558;-0.448;2022-08-19T00:10:58;100956.00;;;29.03;48.77
60866;BME280;46701;51.558;-0.448;2022-08-19T00:16:00;100956.00;;;29.03;48.74
60866;BME280;46701;51.558;-0.448;2022-08-19T00:21:02;100958.00;;;29.03;48.70
60866;BME280;46701;51.558;-0.448;2022-08-19T00:26:04;100958.00;;;29.02;48.74
60866;BME280;46701;51.558;-0.448;2022-08-19T00:31:06;100958.00;;;29.02;48.75
60866;BME280;46701;51.558;-0.448;2022-08-19T00:36:08;100958.00;;;29.02;48.74
60866;BME280;46701;51.558;-0.448;2022-08-19T00:41:12;100958.00;;;29.02;48.76
60866;BME280;46701;51.558;-0.448;2022-08-19T00:46:12;100956.00;;;29.01;48.79
60866;BME280;46701;51.558;-0.448;2022-08-19T00:51:14;100956.00;;;29.01;48.85
60866;BME280;46701;51.558;-0.448;2022-08-19T00:56:16;100956.00;;;29.01;48.69
60866;BME280;46701;51.558;-0.448;2022-08-19T01:01:18;100956.00;;;29.01;48.70
60866;BME280;46701;51.558;-0.448;2022-08-19T01:06:20;100956.00;;;29.01;48.76
60866;BME280;46701;51.558;-0.448;2022-08-19T01:11:22;100956.00;;;29.00;48.89
60866;BME280;46701;51.558;-0.448;2022-08-19T01:16:25;100958.00;;;29.00;48.97
60866;BME280;46701;51.558;-0.448;2022-08-19T01:21:27;100958.00;;;29.00;48.99
60866;BME280;46701;51.558;-0.448;2022-08-19T01:26:28;100954.00;;;28.99;48.98
60866;BME280;46701;51.558;-0.448;2022-08-19T01:31:30;100956.00;;;28.99;49.04
60866;BME280;46701;51.558;-0.448;2022-08-19T01:36:34;100956.00;;;28.99;49.07
60866;BME280;46701;51.558;-0.448;2022-08-19T01:41:34;100956.00;;;28.98;49.09
60866;BME280;46701;51.558;-0.448;2022-08-19T01:46:36;100956.00;;;28.98;48.96
60866;BME280;46701;51.558;-0.448;2022-08-19T01:51:38;100952.00;;;28.97;48.99
60866;BME280;46701;51.558;-0.448;2022-08-19T01:56:40;100952.00;;;28.97;48.94
60866;BME280;46701;51.558;-0.448;2022-08-19T02:01:42;100952.00;;;28.97;48.87
60866;BME280;46701;51.558;-0.448;2022-08-19T02:06:44;100952.00;;;28.96;48.87
60866;BME280;46701;51.558;-0.448;2022-08-19T02:11:46;100950.00;;;28.96;48.81
60866;BME280;46701;51.558;-0.448;2022-08-19T02:16:48;100950.00;;;28.95;48.77
60866;BME280;46701;51.558;-0.448;2022-08-19T02:21:50;100952.00;;;28.95;48.72
60866;BME280;46701;51.558;-0.448;2022-08-19T02:26:52;100952.00;;;28.94;48.79
60866;BME280;46701;51.558;-0.448;2022-08-19T02:31:54;100952.00;;;28.94;48.72
60866;BME280;46701;51.558;-0.448;2022-08-19T02:36:56;100950.00;;;28.94;48.68
60866;BME280;46701;51.558;-0.448;2022-08-19T02:41:58;100950.00;;;28.93;48.73
60866;BME280;46701;51.558;-0.448;2022-08-19T02:47:00;100952.00;;;28.93;48.76
60866;BME280;46701;51.558;-0.448;2022-08-19T02:52:02;100952.00;;;28.92;48.82
60866;BME280;46701;51.558;-0.448;2022-08-19T02:57:04;100950.00;;;28.92;48.87
60866;BME280;46701;51.558;-0.448;2022-08-19T03:02:06;100950.00;;;28.91;48.84
60866;BME280;46701;51.558;-0.448;2022-08-19T03:07:08;100950.00;;;28.91;48.98
60866;BME280;46701;51.558;-0.448;2022-08-19T03:12:10;100952.00;;;28.90;49.00
60866;BME280;46701;51.558;-0.448;2022-08-19T03:17:12;100952.00;;;28.90;48.91
60866;BME280;46701;51.558;-0.448;2022-08-19T03:22:14;100950.00;;;28.89;48.94
60866;BME280;46701;51.558;-0.448;2022-08-19T03:27:16;100950.00;;;28.88;48.88
60866;BME280;46701;51.558;-0.448;2022-08-19T03:32:18;100952.00;;;28.88;48.99
60866;BME280;46701;51.558;-0.448;2022-08-19T03:37:20;100950.00;;;28.87;49.03
60866;BME280;46701;51.558;-0.448;2022-08-19T03:42:22;100950.00;;;28.87;49.08
60866;BME280;46701;51.558;-0.448;2022-08-19T03:47:24;100952.00;;;28.86;49.07
60866;BME280;46701;51.558;-0.448;2022-08-19T03:52:26;100952.00;;;28.86;48.96
60866;BME280;46701;51.558;-0.448;2022-08-19T03:57:28;100950.00;;;28.85;49.00
60866;BME280;46701;51.558;-0.448;2022-08-19T04:02:30;100950.00;;;28.85;48.98
60866;BME280;46701;51.558;-0.448;2022-08-19T04:07:32;100952.00;;;28.84;48.93
60866;BME280;46701;51.558;-0.448;2022-08-19T04:12:34;100950.00;;;28.83;48.97
60866;BME280;46701;51.558;-0.448;2022-08-19T04:17:36;100950.00;;;28.83;49.01
60866;BME280;46701;51.558;-0.448;2022-08-19T04:22:38;100952.00;;;28.82;49.07
60866;BME280;46701;51.558;-0.448;2022-08-19T04:27:40;100952.00;;;28.82;49.11
60866;BME280;46701;51.558;-0.448;2022-08-19T04:32:42;100950.00;;;28.81;49.20
60866;BME280;46701;51.558;-0.448;2022-08-19T04:37:43;100952.00;;;28.81;49.18
60866;BME280;46701;51.558;-0.448;2022-08-19T04:42:46;100952.00;;;28.80;49.29
60866;BME280;46701;51.558;-0.448;2022-08-19T04:47:47;100948.00;;;28.79;49.34
60866;BME280;46701;51.558;-0.448;2022-08-19T04:52:50;100950.00;;;28.79;49.38
60866;BME280;46701;51.558;-0.448;2022-08-19T04:57:52;100950.00;;;28.78;49.37
60866;BME280;46701;51.558;-0.448;2022-08-19T05:02:53;100948.00;;;28.78;49.44
60866;BME280;46701;51.558;-0.448;2022-08-19T05:07:55;100950.00;;;28.77;49.49
60866;BME280;46701;51.558;-0.448;2022-08-19T05:12:57;100952.00;;;28.76;49.57
60866;BME280;46701;51.558;-0.448;2022-08-19T05:17:59;100950.00;;;28.76;49.58
60866;BME280;46701;51.558;-0.448;2022-08-19T05:23:02;100952.00;;;28.75;49.61
60866;BME280;46701;51.558;-0.448;2022-08-19T05:28:03;100952.00;;;28.74;49.64
60866;BME280;46701;51.558;-0.448;2022-08-19T05:33:06;100952.00;;;28.74;49.68
60866;BME280;46701;51.558;-0.448;2022-08-19T05:38:07;100954.00;;;28.73;49.72
60866;BME280;46701;51.558;-0.448;2022-08-19T05:43:09;100954.00;;;28.72;49.69
60866;BME280;46701;51.558;-0.448;2022-08-19T05:48:12;100954.00;;;28.72;49.69
60866;BME280;46701;51.558;-0.448;2022-08-19T05:53:13;100954.00;;;28.71;49.66
60866;BME280;46701;51.558;-0.448;2022-08-19T05:58:15;100956.00;;;28.70;49.70
60866;BME280;46701;51.558;-0.448;2022-08-19T06:03:17;100958.00;;;28.70;49.67
60866;BME280;46701;51.558;-0.448;2022-08-19T06:08:19;100956.00;;;28.69;49.66
60866;BME280;46701;51.558;-0.448;2022-08-19T06:13:22;100958.00;;;28.69;49.70
60866;BME280;46701;51.558;-0.448;2022-08-19T06:18:23;100960.00;;;28.68;49.70
60866;BME280;46701;51.558;-0.448;2022-08-19T06:23:25;100958.00;;;28.67;49.74
60866;BME280;46701;51.558;-0.448;2022-08-19T06:28:27;100960.00;;;28.67;49.81
60866;BME280;46701;51.558;-0.448;2022-08-19T06:33:29;100962.00;;;28.66;49.83
60866;BME280;46701;51.558;-0.448;2022-08-19T06:38:32;100960.00;;;28.65;49.95
60866;BME280;46701;51.558;-0.448;2022-08-19T06:43:34;100962.00;;;28.65;49.97
60866;BME280;46701;51.558;-0.448;2022-08-19T06:48:35;100964.00;;;28.64;50.02
60866;BME280;46701;51.558;-0.448;2022-08-19T06:53:37;100962.00;;;28.63;50.18
60866;BME280;46701;51.558;-0.448;2022-08-19T06:58:40;100964.00;;;28.63;50.17
60866;BME280;46701;51.558;-0.448;2022-08-19T07:03:41;100962.00;;;28.62;50.48
60866;BME280;46701;51.558;-0.448;2022-08-19T07:08:44;100964.00;;;28.61;50.56
60866;BME280;46701;51.558;-0.448;2022-08-19T07:13:45;100966.00;;;28.60;50.83
60866;BME280;46701;51.558;-0.448;2022-08-19T07:18:48;100962.00;;;28.60;50.79
60866;BME280;46701;51.558;-0.448;2022-08-19T07:23:50;100964.00;;;28.59;50.74
60866;BME280;46701;51.558;-0.448;2022-08-19T07:28:52;100966.00;;;28.58;50.74
60866;BME280;46701;51.558;-0.448;2022-08-19T07:33:54;100966.00;;;28.57;50.71
60866;BME280;46701;51.558;-0.448;2022-08-19T07:38:55;100968.00;;;28.57;50.78
60866;BME280;46701;51.558;-0.448;2022-08-19T07:43:58;100968.00;;;28.56;50.83
60866;BME280;46701;51.558;-0.448;2022-08-19T07:49:00;100968.00;;;28.55;50.81
60866;BME280;46701;51.558;-0.448;2022-08-19T07:54:01;100970.00;;;28.54;50.87
60866;BME280;46701;51.558;-0.448;2022-08-19T07:59:03;100970.00;;;28.54;51.33
60866;BME280;46701;51.558;-0.448;2022-08-19T08:04:06;100972.00;;;28.53;52.00
60866;BME280;46701;51.558;-0.448;2022-08-19T08:09:14;100974.00;;;28.52;52.31
60866;BME280;46701;51.558;-0.448;2022-08-19T08:14:09;100972.00;;;28.51;52.05
60866;BME280;46701;51.558;-0.448;2022-08-19T08:19:12;100974.00;;;28.51;52.04
60866;BME280;46701;51.558;-0.448;2022-08-19T08:24:13;100976.00;;;28.50;52.23
60866;BME280;46701;51.558;-0.448;2022-08-19T08:29:15;100976.00;;;28.49;51.93
60866;BME280;46701;51.558;-0.448;2022-08-19T08:34:17;100978.00;;;28.49;48.21
60866;BME280;46701;51.558;-0.448;2022-08-19T08:39:20;100980.00;;;28.48;47.62
60866;BME280;46701;51.558;-0.448;2022-08-19T08:44:22;100978.00;;;28.47;47.36
60866;BME280;46701;51.558;-0.448;2022-08-19T08:49:26;100980.00;;;28.47;46.26
60866;BME280;46701;51.558;-0.448;2022-08-19T08:54:27;100980.00;;;28.46;45.43
60866;BME280;46701;51.558;-0.448;2022-08-19T08:59:28;100981.00;;;28.45;44.39
60866;BME280;46701;51.558;-0.448;2022-08-19T09:04:29;100983.00;;;28.44;44.86
60866;BME280;46701;51.558;-0.448;2022-08-19T09:09:32;100983.00;;;28.44;44.43
60866;BME280;46701;51.558;-0.448;2022-08-19T09:14:36;100985.00;;;28.43;44.56
60866;BME280;46701;51.558;-0.448;2022-08-19T09:15:41;100985.00;;;28.43;44.56
60866;BME280;46701;51.558;-0.448;2022-08-19T09:19:35;100983.00;;;28.42;44.76
60866;BME280;46701;51.558;-0.448;2022-08-19T09:24:37;100985.00;;;28.41;44.84
60866;BME280;46701;51.558;-0.448;2022-08-19T09:29:39;100987.00;;;28.40;44.78
60866;BME280;46701;51.558;-0.448;2022-08-19T09:34:41;100983.00;;;28.40;44.35
60866;BME280;46701;51.558;-0.448;2022-08-19T09:39:43;100985.00;;;28.39;44.08
60866;BME280;46701;51.558;-0.448;2022-08-19T09:44:45;100987.00;;;28.38;43.86
60866;BME280;46701;51.558;-0.448;2022-08-19T09:49:47;100987.00;;;28.37;44.45
60866;BME280;46701;51.558;-0.448;2022-08-19T09:54:51;100989.00;;;28.37;44.56
60866;BME280;46701;51.558;-0.448;2022-08-19T09:59:51;100989.00;;;28.36;44.82
60866;BME280;46701;51.558;-0.448;2022-08-19T10:04:53;100991.00;;;28.35;45.11
60866;BME280;46701;51.558;-0.448;2022-08-19T10:09:55;100993.00;;;28.34;44.80
60866;BME280;46701;51.558;-0.448;2022-08-19T10:14:57;100991.00;;;28.33;43.92
60866;BME280;46701;51.558;-0.448;2022-08-19T10:19:59;100993.00;;;28.33;44.29
60866;BME280;46701;51.558;-0.448;2022-08-19T10:25:01;100993.00;;;28.32;44.29
60866;BME280;46701;51.558;-0.448;2022-08-19T10:30:03;100995.00;;;28.31;44.27
60866;BME280;46701;51.558;-0.448;2022-08-19T10:35:05;100997.00;;;28.31;44.13
60866;BME280;46701;51.558;-0.448;2022-08-19T10:40:08;100995.00;;;28.30;43.93
60866;BME280;46701;51.558;-0.448;2022-08-19T10:45:10;100997.00;;;28.29;43.35
60866;BME280;46701;51.558;-0.448;2022-08-19T10:50:11;100999.00;;;28.28;43.36
60866;BME280;46701;51.558;-0.448;2022-08-19T10:55:13;100999.00;;;28.28;43.03
60866;BME280;46701;51.558;-0.448;2022-08-19T11:00:15;101001.00;;;28.27;43.24
60866;BME280;46701;51.558;-0.448;2022-08-19T11:05:21;101003.00;;;28.26;42.34
60866;BME280;46701;51.558;-0.448;2022-08-19T11:10:19;101001.00;;;28.26;41.45
60866;BME280;46701;51.558;-0.448;2022-08-19T11:15:21;101003.00;;;28.25;40.72
60866;BME280;46701;51.558;-0.448;2022-08-19T11:20:23;101005.00;;;28.24;40.05
60866;BME280;46701;51.558;-0.448;2022-08-19T11:25:25;101005.00;;;28.24;39.43
60866;BME280;46701;51.558;-0.448;2022-08-19T11:30:27;101007.00;;;28.23;39.19
60866;BME280;46701;51.558;-0.448;2022-08-19T11:35:29;101009.00;;;28.22;39.67
60866;BME280;46701;51.558;-0.448;2022-08-19T11:40:31;101005.00;;;28.22;39.61
60866;BME280;46701;51.558;-0.448;2022-08-19T11:45:33;101007.00;;;28.21;39.09
60866;BME280;46701;51.558;-0.448;2022-08-19T11:50:38;101009.00;;;28.20;38.52
60866;BME280;46701;51.558;-0.448;2022-08-19T11:55:37;101009.00;;;28.20;37.83
60866;BME280;46701;51.558;-0.448;2022-08-19T12:00:39;101011.00;;;28.19;38.04
60866;BME280;46701;51.558;-0.448;2022-08-19T12:05:41;101013.00;;;28.18;37.68
60866;BME280;46701;51.558;-0.448;2022-08-19T12:10:43;101011.00;;;28.17;37.23
60866;BME280;46701;51.558;-0.448;2022-08-19T12:15:47;101013.00;;;28.17;37.38
60866;BME280;46701;51.558;-0.448;2022-08-19T12:20:47;101015.00;;;28.16;37.16
60866;BME280;46701;51.558;-0.448;2022-08-19T12:25:49;101013.00;;;28.16;36.55
60866;BME280;46701;51.558;-0.448;2022-08-19T12:30:51;101017.00;;;28.15;37.15
60866;BME280;46701;51.558;-0.448;2022-08-19T12:35:54;101017.00;;;28.14;35.58
60866;BME280;46701;51.558;-0.448;2022-08-19T12:40:55;101017.00;;;28.13;36.48
60866;BME280;46701;51.558;-0.448;2022-08-19T12:45:57;101019.00;;;28.13;35.67
60866;BME280;46701;51.558;-0.448;2022-08-19T12:50:59;101021.00;;;28.12;35.36
60866;BME280;46701;51.558;-0.448;2022-08-19T12:56:01;101019.00;;;28.12;34.50
60866;BME280;46701;51.558;-0.448;2022-08-19T13:01:06;101021.00;;;28.11;35.18
60866;BME280;46701;51.558;-0.448;2022-08-19T13:06:05;101021.00;;;28.11;34.78
60866;BME280;46701;51.558;-0.448;2022-08-19T13:11:08;101021.00;;;28.10;34.44
60866;BME280;46701;51.558;-0.448;2022-08-19T13:16:10;101021.00;;;28.10;34.04
60866;BME280;46701;51.558;-0.448;2022-08-19T13:21:11;101023.00;;;28.09;33.85
60866;BME280;46701;51.558;-0.448;2022-08-19T13:26:14;101023.00;;;28.09;34.65
60866;BME280;46701;51.558;-0.448;2022-08-19T13:31:16;101025.00;;;28.09;34.60
60866;BME280;46701;51.558;-0.448;2022-08-19T13:36:17;101023.00;;;28.08;33.87
60866;BME280;46701;51.558;-0.448;2022-08-19T13:41:19;101025.00;;;28.08;33.79
60866;BME280;46701;51.558;-0.448;2022-08-19T13:46:21;101025.00;;;28.08;33.81
60866;BME280;46701;51.558;-0.448;2022-08-19T13:51:23;101027.00;;;28.07;34.07
60866;BME280;46701;51.558;-0.448;2022-08-19T13:56:25;101027.00;;;28.07;34.71
60866;BME280;46701;51.558;-0.448;2022-08-19T14:01:27;101027.00;;;28.07;35.06
60866;BME280;46701;51.558;-0.448;2022-08-19T14:06:29;101028.00;;;28.07;34.78
60866;BME280;46701;51.558;-0.448;2022-08-19T14:11:31;101028.00;;;28.08;35.32
60866;BME280;46701;51.558;-0.448;2022-08-19T14:16:33;101028.00;;;28.08;35.64
60866;BME280;46701;51.558;-0.448;2022-08-19T14:21:35;101028.00;;;28.08;35.32
60866;BME280;46701;51.558;-0.448;2022-08-19T14:26:37;101028.00;;;28.08;35.47
60866;BME280;46701;51.558;-0.448;2022-08-19T14:31:39;101030.00;;;28.08;35.33
60866;BME280;46701;51.558;-0.448;2022-08-19T14:36:41;101030.00;;;28.09;35.34
60866;BME280;46701;51.558;-0.448;2022-08-19T14:41:43;101030.00;;;28.09;35.61
60866;BME280;46701;51.558;-0.448;2022-08-19T14:46:45;101030.00;;;28.10;35.42
60866;BME280;46701;51.558;-0.448;2022-08-19T14:51:47;101030.00;;;28.10;35.42
60866;BME280;46701;51.558;-0.448;2022-08-19T14:56:49;101032.00;;;28.11;34.02
60866;BME280;46701;51.558;-0.448;2022-08-19T15:01:51;101032.00;;;28.11;33.41
60866;BME280;46701;51.558;-0.448;2022-08-19T15:06:53;101032.00;;;28.11;33.46
60866;BME280;46701;51.558;-0.448;2022-08-19T15:11:55;101032.00;;;28.12;33.51
60866;BME280;46701;51.558;-0.448;2022-08-19T15:16:57;101032.00;;;28.12;33.63
60866;BME280;46701;51.558;-0.448;2022-08-19T15:21:59;101036.00;;;28.12;33.89
60866;BME280;46701;51.558;-0.448;2022-08-19T15:27:01;101036.00;;;28.13;33.27
60866;BME280;46701;51.558;-0.448;2022-08-19T15:32:03;101036.00;;;28.13;33.48
60866;BME280;46701;51.558;-0.448;2022-08-19T15:37:05;101036.00;;;28.14;33.23
60866;BME280;46701;51.558;-0.448;2022-08-19T15:42:07;101036.00;;;28.14;33.39
60866;BME280;46701;51.558;-0.448;2022-08-19T15:47:09;101038.00;;;28.14;33.49
60866;BME280;46701;51.558;-0.448;2022-08-19T15:52:11;101038.00;;;28.15;32.67
60866;BME280;46701;51.558;-0.448;2022-08-19T15:57:13;101038.00;;;28.15;32.76
60866;BME280;46701;51.558;-0.448;2022-08-19T16:02:17;101038.00;;;28.16;32.34
60866;BME280;46701;51.558;-0.448;2022-08-19T16:07:17;101040.00;;;28.16;32.64
60866;BME280;46701;51.558;-0.448;2022-08-19T16:12:19;101040.00;;;28.17;32.38
60866;BME280;46701;51.558;-0.448;2022-08-19T16:17:21;101040.00;;;28.17;32.19
60866;BME280;46701;51.558;-0.448;2022-08-19T16:22:27;101040.00;;;28.18;32.33
60866;BME280;46701;51.558;-0.448;2022-08-19T16:27:25;101040.00;;;28.18;32.20
60866;BME280;46701;51.558;-0.448;2022-08-19T16:32:27;101044.00;;;28.18;31.90
60866;BME280;46701;51.558;-0.448;2022-08-19T16:37:29;101044.00;;;28.19;31.82
60866;BME280;46701;51.558;-0.448;2022-08-19T16:42:31;101044.00;;;28.19;30.81
60866;BME280;46701;51.558;-0.448;2022-08-19T16:47:33;101044.00;;;28.20;30.68
60866;BME280;46701;51.558;-0.448;2022-08-19T16:52:35;101046.00;;;28.20;31.01
60866;BME280;46701;51.558;-0.448;2022-08-19T16:57:37;101048.00;;;28.20;31.49
60866;BME280;46701;51.558;-0.448;2022-08-19T17:02:39;101050.00;;;28.20;31.94
60866;BME280;46701;51.558;-0.448;2022-08-19T17:07:41;101050.00;;;28.21;31.84
60866;BME280;46701;51.558;-0.448;2022-08-19T17:12:43;101050.00;;;28.21;31.86
60866;BME280;46701;51.558;-0.448;2022-08-19T17:17:45;101050.00;;;28.21;31.97
60866;BME280;46701;51.558;-0.448;2022-08-19T17:22:50;101059.00;;;28.21;32.17
60866;BME280;46701;51.558;-0.448;2022-08-19T17:27:49;101059.00;;;28.22;32.38
60866;BME280;46701;51.558;-0.448;2022-08-19T17:32:51;101059.00;;;28.22;32.51
60866;BME280;46701;51.558;-0.448;2022-08-19T17:37:53;101061.00;;;28.22;32.70
60866;BME280;46701;51.558;-0.448;2022-08-19T17:42:55;101066.00;;;28.22;33.09
60866;BME280;46701;51.558;-0.448;2022-08-19T17:47:57;101068.00;;;28.22;33.09
60866;BME280;46701;51.558;-0.448;2022-08-19T17:52:59;101068.00;;;28.22;33.09
60866;BME280;46701;51.558;-0.448;2022-08-19T17:58:01;101068.00;;;28.22;33.21
60866;BME280;46701;51.558;-0.448;2022-08-19T18:03:04;101070.00;;;28.22;33.01
60866;BME280;46701;51.558;-0.448;2022-08-19T18:08:05;101072.00;;;28.22;32.88
60866;BME280;46701;51.558;-0.448;2022-08-19T18:13:07;101072.00;;;28.22;32.89
60866;BME280;46701;51.558;-0.448;2022-08-19T18:18:09;101074.00;;;28.22;32.97
60866;BME280;46701;51.558;-0.448;2022-08-19T18:23:11;101074.00;;;28.22;33.19
60866;BME280;46701;51.558;-0.448;2022-08-19T18:28:13;101076.00;;;28.22;33.25
60866;BME280;46701;51.558;-0.448;2022-08-19T18:33:15;101076.00;;;28.22;33.51
60866;BME280;46701;51.558;-0.448;2022-08-19T18:38:17;101078.00;;;28.22;33.47
60866;BME280;46701;51.558;-0.448;2022-08-19T18:43:19;101080.00;;;28.22;33.49
60866;BME280;46701;51.558;-0.448;2022-08-19T18:48:21;101080.00;;;28.22;33.50
60866;BME280;46701;51.558;-0.448;2022-08-19T18:53:25;101082.00;;;28.22;33.35
60866;BME280;46701;51.558;-0.448;2022-08-19T18:58:27;101084.00;;;28.22;33.45
60866;BME280;46701;51.558;-0.448;2022-08-19T19:03:27;101086.00;;;28.22;33.59
60866;BME280;46701;51.558;-0.448;2022-08-19T19:08:29;101082.00;;;28.22;33.58
60866;BME280;46701;51.558;-0.448;2022-08-19T19:13:31;101082.00;;;28.22;33.87
60866;BME280;46701;51.558;-0.448;2022-08-19T19:18:33;101084.00;;;28.22;33.88
60866;BME280;46701;51.558;-0.448;2022-08-19T19:23:35;101086.00;;;28.22;33.80
60866;BME280;46701;51.558;-0.448;2022-08-19T19:28:39;101088.00;;;28.22;34.62
60866;BME280;46701;51.558;-0.448;2022-08-19T19:33:39;101090.00;;;28.21;35.29
60866;BME280;46701;51.558;-0.448;2022-08-19T19:38:41;101092.00;;;28.21;36.39
60866;BME280;46701;51.558;-0.448;2022-08-19T19:43:43;101094.00;;;28.21;36.77
60866;BME280;46701;51.558;-0.448;2022-08-19T19:48:45;101094.00;;;28.21;37.05
60866;BME280;46701;51.558;-0.448;2022-08-19T19:53:47;101096.00;;;28.22;37.03
60866;BME280;46701;51.558;-0.448;2022-08-19T19:58:49;101098.00;;;28.22;37.45
60866;BME280;46701;51.558;-0.448;2022-08-19T20:03:51;101098.00;;;28.22;37.39
60866;BME280;46701;51.558;-0.448;2022-08-19T20:08:53;101100.00;;;28.22;37.49
60866;BME280;46701;51.558;-0.448;2022-08-19T20:13:55;101108.00;;;28.22;37.79
60866;BME280;46701;51.558;-0.448;2022-08-19T20:18:57;101110.00;;;28.22;37.96
60866;BME280;46701;51.558;-0.448;2022-08-19T20:23:59;101110.00;;;28.22;38.16
60866;BME280;46701;51.558;-0.448;2022-08-19T20:29:01;101112.00;;;28.22;38.11
60866;BME280;46701;51.558;-0.448;2022-08-19T20:34:03;101113.00;;;28.22;38.03
60866;BME280;46701;51.558;-0.448;2022-08-19T20:39:05;101115.00;;;28.22;38.01
60866;BME280;46701;51.558;-0.448;2022-08-19T20:44:07;101117.00;;;28.23;37.97
60866;BME280;46701;51.558;-0.448;2022-08-19T20:49:09;101119.00;;;28.23;37.96
60866;BME280;46701;51.558;-0.448;2022-08-19T20:54:11;101121.00;;;28.23;37.90
60866;BME280;46701;51.558;-0.448;2022-08-19T20:59:13;101123.00;;;28.23;37.97
60866;BME280;46701;51.558;-0.448;2022-08-19T21:04:15;101125.00;;;28.23;37.92
60866;BME280;46701;51.558;-0.448;2022-08-19T21:09:17;101125.00;;;28.23;37.88
60866;BME280;46701;51.558;-0.448;2022-08-19T21:14:19;101127.00;;;28.23;37.93
60866;BME280;46701;51.558;-0.448;2022-08-19T21:19:21;101129.00;;;28.23;37.96
60866;BME280;46701;51.558;-0.448;2022-08-19T21:24:23;101131.00;;;28.23;38.18
60866;BME280;46701;51.558;-0.448;2022-08-19T21:29:25;101133.00;;;28.23;38.18
60866;BME280;46701;51.558;-0.448;2022-08-19T21:34:27;101135.00;;;28.23;38.19
60866;BME280;46701;51.558;-0.448;2022-08-19T21:39:28;101137.00;;;28.23;38.18
60866;BME280;46701;51.558;-0.448;2022-08-19T21:44:30;101139.00;;;28.23;38.27
60866;BME280;46701;51.558;-0.448;2022-08-19T21:49:32;101141.00;;;28.23;38.38
60866;BME280;46701;51.558;-0.448;2022-08-19T21:54:34;101143.00;;;28.23;38.38
60866;BME280;46701;51.558;-0.448;2022-08-19T21:59:37;101145.00;;;28.23;38.47
60866;BME280;46701;51.558;-0.448;2022-08-19T22:04:38;101147.00;;;28.23;38.45
60866;BME280;46701;51.558;-0.448;2022-08-19T22:09:41;101147.00;;;28.23;38.52
60866;BME280;46701;51.558;-0.448;2022-08-19T22:14:42;101149.00;;;28.23;38.46
60866;BME280;46701;51.558;-0.448;2022-08-19T22:19:44;101151.00;;;28.23;38.54
60866;BME280;46701;51.558;-0.448;2022-08-19T22:24:46;101153.00;;;28.23;38.53
60866;BME280;46701;51.558;-0.448;2022-08-19T22:29:48;101155.00;;;28.23;38.46
60866;BME280;46701;51.558;-0.448;2022-08-19T22:34:51;101157.00;;;28.23;38.54
60866;BME280;46701;51.558;-0.448;2022-08-19T22:39:53;101159.00;;;28.23;38.63
60866;BME280;46701;51.558;-0.448;2022-08-19T22:44:55;101160.00;;;28.23;38.65
60866;BME280;46701;51.558;-0.448;2022-08-19T22:49:56;101162.00;;;28.23;38.56
60866;BME280;46701;51.558;-0.448;2022-08-19T22:54:59;101164.00;;;28.23;38.56
60866;BME280;46701;51.558;-0.448;2022-08-19T23:05:03;101166.00;;;28.23;38.63
60866;BME280;46701;51.558;-0.448;2022-08-19T23:10:06;101168.00;;;28.24;38.54
60866;BME280;46701;51.558;-0.448;2022-08-19T23:15:08;101170.00;;;28.24;38.56
60866;BME280;46701;51.558;-0.448;2022-08-19T23:20:10;101172.00;;;28.24;38.58
60866;BME280;46701;51.558;-0.448;2022-08-19T23:25:16;101174.00;;;28.24;38.54
60866;BME280;46701;51.558;-0.448;2022-08-19T23:26:19;101174.00;;;28.24;38.54
60866;BME280;46701;51.558;-0.448;2022-08-19T23:30:13;101176.00;;;28.24;38.64
60866;BME280;46701;51.558;-0.448;2022-08-19T23:35:15;101180.00;;;28.24;38.66
60866;BME280;46701;51.558;-0.448;2022-08-19T23:40:17;101182.00;;;28.24;38.77
60866;BME280;46701;51.558;-0.448;2022-08-19T23:45:20;101184.00;;;28.24;38.88
60866;BME280;46701;51.558;-0.448;2022-08-19T23:50:21;101186.00;;;28.24;38.93
60866;BME280;46701;51.558;-0.448;2022-08-19T23:55:24;101186.00;;;28.24;39.03
